createdAt,value
2024-03-03T00:00:07.846Z,99106.85
2024-03-03T00:02:35.467Z,99103.71
2024-03-03T00:05:03.174Z,99101.88
2024-03-03T00:07:31.042Z,99101.13
2024-03-03T00:09:58.721Z,99097.46
2024-03-03T00:12:26.258Z,99097.91
2024-03-03T00:14:53.930Z,99099.04
2024-03-03T00:17:21.482Z,99099.56
2024-03-03T00:19:49.145Z,99094.77
2024-03-03T00:22:16.877Z,99094.56
2024-03-03T00:24:44.590Z,99087.40
2024-03-03T00:27:12.230Z,99091.11
2024-03-03T00:29:39.795Z,99090.61
2024-03-03T00:32:07.355Z,99089.58
2024-03-03T00:34:34.920Z,99091.15
2024-03-03T00:37:02.727Z,99090.88
2024-03-03T00:39:30.333Z,99091.25
2024-03-03T00:41:58.000Z,99092.98
2024-03-03T00:44:25.566Z,99092.39
2024-03-03T00:46:53.317Z,99082.94
2024-03-03T00:49:21.349Z,99082.52
2024-03-03T00:51:49.162Z,99083.44
2024-03-03T00:54:16.710Z,99081.75
2024-03-03T00:56:44.382Z,99083.06
2024-03-03T00:59:11.927Z,99079.27
2024-03-03T01:01:39.592Z,99077.94
2024-03-03T01:04:07.206Z,99078.64
2024-03-03T01:06:34.929Z,99077.77
2024-03-03T01:09:02.471Z,99075.09
2024-03-03T01:11:30.182Z,99076.05
2024-03-03T01:13:57.791Z,99075.85
2024-03-03T01:16:25.359Z,99075.23
2024-03-03T01:18:53.032Z,99074.02
2024-03-03T01:21:20.591Z,99073.00
2024-03-03T01:23:48.234Z,99072.67
2024-03-03T01:26:15.789Z,99072.13
2024-03-03T01:28:43.759Z,99069.05
2024-03-03T01:31:11.397Z,99067.17
2024-03-03T01:33:39.216Z,99067.02
2024-03-03T01:36:06.861Z,99070.16
2024-03-03T01:38:34.404Z,99065.48
2024-03-03T01:41:02.075Z,99063.52
2024-03-03T01:43:29.629Z,99062.50
2024-03-03T01:45:57.316Z,99062.28
2024-03-03T01:48:24.963Z,99058.45
2024-03-03T01:50:52.933Z,99058.80
2024-03-03T01:53:20.477Z,99057.29
2024-03-03T01:55:48.041Z,99055.79
2024-03-03T01:58:15.670Z,99056.14
2024-03-03T02:00:43.497Z,99050.95
2024-03-03T02:03:11.141Z,99052.05
2024-03-03T02:05:38.813Z,99050.55
2024-03-03T02:08:06.349Z,99050.27
2024-03-03T02:10:34.014Z,99048.55
2024-03-03T02:13:02.038Z,99050.52
2024-03-03T02:15:29.740Z,99049.84
2024-03-03T02:17:57.359Z,99049.59
2024-03-03T02:20:25.592Z,99047.98
2024-03-03T02:22:53.238Z,99045.16
2024-03-03T02:25:20.990Z,99041.52
2024-03-03T02:27:48.749Z,99036.45
2024-03-03T02:30:16.421Z,99036.44
2024-03-03T02:32:44.127Z,99042.11
2024-03-03T02:35:12.048Z,99039.83
2024-03-03T02:37:39.611Z,99038.14
2024-03-03T02:40:07.239Z,99036.91
2024-03-03T02:42:36.725Z,99035.02
2024-03-03T02:45:04.848Z,99032.85
2024-03-03T02:47:32.533Z,99033.58
2024-03-03T02:50:00.229Z,99031.01
2024-03-03T02:52:27.996Z,99029.94
2024-03-03T02:54:55.811Z,99028.27
2024-03-03T02:57:23.486Z,99030.52
2024-03-03T02:59:51.014Z,99029.95
2024-03-03T03:02:18.681Z,99028.77
2024-03-03T03:04:46.235Z,99030.34
2024-03-03T03:07:13.962Z,99029.80
2024-03-03T03:09:41.720Z,99028.39
2024-03-03T03:12:09.435Z,99025.71
2024-03-03T03:14:37.302Z,99019.00
2024-03-03T03:17:04.958Z,99019.33
2024-03-03T03:19:32.518Z,99019.90
2024-03-03T03:22:00.259Z,99022.23
2024-03-03T03:24:27.987Z,99019.78
2024-03-03T03:26:55.708Z,99021.45
2024-03-03T03:29:23.263Z,99023.08
2024-03-03T03:31:50.871Z,99017.77
2024-03-03T03:34:18.564Z,99018.02
2024-03-03T03:36:46.686Z,99017.98
2024-03-03T03:39:14.450Z,99020.25
2024-03-03T03:41:42.083Z,99023.48
2024-03-03T03:44:09.752Z,99025.31
2024-03-03T03:46:37.299Z,99025.73
2024-03-03T03:49:04.926Z,99025.36
2024-03-03T03:51:32.625Z,99026.81
2024-03-03T03:54:00.701Z,99028.66
2024-03-03T03:56:28.256Z,99029.90
2024-03-03T03:58:55.814Z,99028.08
2024-03-03T04:01:23.476Z,99034.24
2024-03-03T04:03:51.280Z,99030.46
2024-03-03T04:06:18.918Z,99029.36
2024-03-03T04:08:46.565Z,99026.90
2024-03-03T04:11:14.252Z,99026.04
2024-03-03T04:13:41.879Z,99023.21
2024-03-03T04:16:09.880Z,99024.45
2024-03-03T04:18:37.422Z,99021.26
2024-03-03T04:21:05.095Z,99023.61
2024-03-03T04:23:32.663Z,99026.95
2024-03-03T04:26:00.294Z,99026.80
2024-03-03T04:28:27.698Z,99024.81
2024-03-03T04:30:55.254Z,99028.08
2024-03-03T04:33:22.865Z,99024.50
2024-03-03T04:35:50.523Z,99026.08
2024-03-03T04:38:18.187Z,99027.17
2024-03-03T04:40:45.860Z,99024.11
2024-03-03T04:43:13.484Z,99015.70
2024-03-03T04:45:41.295Z,99021.02
2024-03-03T04:48:08.877Z,99018.16
2024-03-03T04:50:36.604Z,99013.07
2024-03-03T04:53:04.177Z,99018.53
2024-03-03T04:55:31.820Z,99016.65
2024-03-03T04:57:59.486Z,99019.67
2024-03-03T05:00:27.159Z,99021.73
2024-03-03T05:02:54.701Z,99019.37
2024-03-03T05:05:22.348Z,99024.17
2024-03-03T05:07:50.031Z,99023.39
2024-03-03T05:10:17.722Z,99023.82
2024-03-03T05:12:45.392Z,99017.28
2024-03-03T05:15:13.013Z,99017.68
2024-03-03T05:17:40.697Z,99016.35
2024-03-03T05:20:08.565Z,99018.50
2024-03-03T05:22:36.191Z,99017.45
2024-03-03T05:25:03.795Z,99018.91
2024-03-03T05:27:31.627Z,99020.08
2024-03-03T05:29:59.283Z,99018.80
2024-03-03T05:32:26.874Z,99019.20
2024-03-03T05:34:54.512Z,99018.48
2024-03-03T05:37:22.342Z,99023.08
2024-03-03T05:39:50.348Z,99018.84
2024-03-03T05:42:18.005Z,99022.96
2024-03-03T05:44:45.561Z,99024.14
2024-03-03T05:47:13.130Z,99021.09
2024-03-03T05:49:40.695Z,99018.90
2024-03-03T05:52:08.256Z,99025.70
2024-03-03T05:54:35.900Z,99027.85
2024-03-03T05:57:03.555Z,99026.37
2024-03-03T05:59:31.423Z,99028.88
2024-03-03T06:01:59.160Z,99029.14
2024-03-03T06:04:26.973Z,99028.37
2024-03-03T06:06:54.738Z,99032.02
2024-03-03T06:09:22.381Z,99031.16
2024-03-03T06:11:49.945Z,99036.51
2024-03-03T06:14:17.594Z,99039.05
2024-03-03T06:16:45.168Z,99044.27
2024-03-03T06:19:12.862Z,99041.94
2024-03-03T06:21:41.022Z,99045.39
2024-03-03T06:24:08.655Z,99045.29
2024-03-03T06:26:36.234Z,99045.06
2024-03-03T06:29:06.808Z,99048.52
2024-03-03T06:31:34.921Z,99049.92
2024-03-03T06:34:02.612Z,99053.20
2024-03-03T06:36:30.127Z,99052.61
2024-03-03T06:38:57.800Z,99051.06
2024-03-03T06:41:25.766Z,99042.10
2024-03-03T06:43:53.429Z,99048.25
2024-03-03T06:46:21.044Z,99046.48
2024-03-03T06:48:48.781Z,99040.24
2024-03-03T06:51:16.512Z,99036.73
2024-03-03T06:53:43.974Z,99031.25
2024-03-03T06:56:11.527Z,99033.87
2024-03-03T06:58:39.090Z,99024.62
2024-03-03T07:01:06.848Z,99022.00
2024-03-03T07:03:34.922Z,99016.60
2024-03-03T07:06:02.498Z,99015.08
2024-03-03T07:08:29.948Z,99018.17
2024-03-03T07:10:57.518Z,99016.11
2024-03-03T07:13:25.252Z,99018.60
2024-03-03T07:15:52.956Z,99014.52
2024-03-03T07:18:20.684Z,99016.66
2024-03-03T07:20:48.342Z,99015.08
2024-03-03T07:23:15.905Z,99011.80
2024-03-03T07:25:43.579Z,99016.60
2024-03-03T07:28:11.308Z,99015.80
2024-03-03T07:30:39.086Z,99008.16
2024-03-03T07:33:06.809Z,99010.55
2024-03-03T07:35:34.409Z,99007.02
2024-03-03T07:38:02.075Z,98999.25
2024-03-03T07:40:29.724Z,98999.64
2024-03-03T07:42:57.428Z,98998.54
2024-03-03T07:45:25.060Z,98998.59
2024-03-03T07:47:52.724Z,98997.10
2024-03-03T07:50:20.281Z,99000.83
2024-03-03T07:52:47.937Z,98994.95
2024-03-03T07:55:15.548Z,99000.17
2024-03-03T07:57:43.321Z,98996.02
2024-03-03T08:00:11.023Z,98995.25
2024-03-03T08:02:38.586Z,98996.21
2024-03-03T08:05:06.152Z,98993.28
2024-03-03T08:07:33.697Z,98995.81
2024-03-03T08:10:01.399Z,98992.27
2024-03-03T08:12:29.038Z,98996.28
2024-03-03T08:14:56.686Z,98998.29
2024-03-03T08:17:24.241Z,99003.54
2024-03-03T08:19:51.803Z,99002.09
2024-03-03T08:22:19.506Z,98995.06
2024-03-03T08:24:47.327Z,99002.91
2024-03-03T08:27:15.011Z,98992.58
2024-03-03T08:29:42.972Z,98997.30
2024-03-03T08:32:10.521Z,98994.17
2024-03-03T08:34:38.187Z,98993.04
2024-03-03T08:37:05.779Z,98997.52
2024-03-03T08:39:33.530Z,98991.31
2024-03-03T08:42:01.162Z,98991.63
2024-03-03T08:44:28.741Z,98994.20
2024-03-03T08:46:56.398Z,98991.25
2024-03-03T08:49:23.972Z,98997.95
2024-03-03T08:51:51.988Z,98997.23
2024-03-03T08:54:19.680Z,98999.77
2024-03-03T08:56:47.337Z,98990.76
2024-03-03T08:59:14.913Z,98991.67
2024-03-03T09:01:42.704Z,98985.88
2024-03-03T09:04:13.419Z,98990.33
2024-03-03T09:06:41.701Z,98988.86
2024-03-03T09:09:09.337Z,98985.81
2024-03-03T09:11:37.336Z,98992.07
2024-03-03T09:14:05.073Z,98993.18
2024-03-03T09:16:32.667Z,98986.34
2024-03-03T09:19:00.638Z,98983.14
2024-03-03T09:21:28.362Z,98979.34
2024-03-03T09:23:56.032Z,98976.24
2024-03-03T09:26:23.676Z,98974.61
2024-03-03T09:28:51.661Z,98977.98
2024-03-03T09:31:19.265Z,98975.95
2024-03-03T09:33:47.493Z,98975.80
2024-03-03T09:36:15.124Z,98975.70
2024-03-03T09:38:42.909Z,98970.75
2024-03-03T09:41:10.471Z,98977.52
2024-03-03T09:43:38.129Z,98974.67
2024-03-03T09:46:07.208Z,98974.91
2024-03-03T09:48:35.805Z,98971.13
2024-03-03T09:51:03.463Z,98968.31
2024-03-03T09:53:31.121Z,98955.33
2024-03-03T09:55:58.997Z,98960.16
2024-03-03T09:58:26.703Z,98967.57
2024-03-03T10:00:54.493Z,98964.66
2024-03-03T10:03:22.182Z,98973.39
2024-03-03T10:05:49.745Z,98960.77
2024-03-03T10:08:17.303Z,98959.77
2024-03-03T10:10:47.707Z,98957.44
2024-03-03T10:13:15.864Z,98963.62
2024-03-03T10:15:43.576Z,98961.41
2024-03-03T10:18:11.132Z,98964.44
2024-03-03T10:20:38.795Z,98962.67
2024-03-03T10:23:06.468Z,98966.90
2024-03-03T10:25:34.158Z,98962.63
2024-03-03T10:28:02.016Z,98968.38
2024-03-03T10:30:29.633Z,98964.85
2024-03-03T10:32:57.246Z,98966.31
2024-03-03T10:35:25.246Z,98959.27
2024-03-03T10:37:52.945Z,98952.02
2024-03-03T10:40:20.657Z,98953.27
2024-03-03T10:42:48.468Z,98946.20
2024-03-03T10:45:16.117Z,98944.24
2024-03-03T10:47:43.834Z,98938.40
2024-03-03T10:50:11.553Z,98937.29
2024-03-03T10:52:39.200Z,98936.29
2024-03-03T10:55:06.799Z,98930.91
2024-03-03T10:57:34.539Z,98928.50
2024-03-03T11:00:02.171Z,98921.23
2024-03-03T11:02:29.857Z,98924.67
2024-03-03T11:04:57.405Z,98921.79
2024-03-03T11:07:24.986Z,98915.24
2024-03-03T11:09:52.650Z,98912.86
2024-03-03T11:12:20.290Z,98909.45
2024-03-03T11:14:47.843Z,98913.05
2024-03-03T11:17:15.410Z,98908.30
2024-03-03T11:19:43.370Z,98906.52
2024-03-03T11:22:10.969Z,98901.21
2024-03-03T11:24:38.591Z,98899.86
2024-03-03T11:27:06.310Z,98906.71
2024-03-03T11:29:33.964Z,98901.85
2024-03-03T11:32:01.679Z,98895.02
2024-03-03T11:34:29.379Z,98891.02
2024-03-03T11:36:57.032Z,98892.38
2024-03-03T11:39:24.870Z,98883.10
2024-03-03T11:41:52.424Z,98878.25
2024-03-03T11:44:19.986Z,98879.77
2024-03-03T11:46:47.548Z,98879.00
2024-03-03T11:49:15.017Z,98877.52
2024-03-03T11:51:42.862Z,98876.03
2024-03-03T11:54:10.539Z,98874.08
2024-03-03T11:56:38.092Z,98873.77
2024-03-03T11:59:06.056Z,98869.00
2024-03-03T12:01:33.868Z,98870.82
2024-03-03T12:04:01.830Z,98865.52
2024-03-03T12:06:29.799Z,98862.61
2024-03-03T12:08:57.516Z,98863.66
2024-03-03T12:11:25.107Z,98862.75
2024-03-03T12:13:52.857Z,98856.55
2024-03-03T12:16:20.443Z,98851.66
2024-03-03T12:18:48.307Z,98851.16
2024-03-03T12:21:16.232Z,98852.00
2024-03-03T12:23:43.904Z,98849.70
2024-03-03T12:26:11.570Z,98842.36
2024-03-03T12:28:39.024Z,98847.95
2024-03-03T12:31:06.680Z,98845.14
2024-03-03T12:33:34.235Z,98847.35
2024-03-03T12:36:01.808Z,98843.46
2024-03-03T12:38:29.350Z,98845.34
2024-03-03T12:40:57.011Z,98845.24
2024-03-03T12:43:24.630Z,98843.34
2024-03-03T12:45:52.763Z,98841.02
2024-03-03T12:48:20.406Z,98839.56
2024-03-03T12:50:48.072Z,98838.83
2024-03-03T12:53:22.900Z,98832.45
2024-03-03T12:55:55.602Z,98835.55
2024-03-03T12:58:23.185Z,98833.23
2024-03-03T13:00:51.089Z,98830.31
2024-03-03T13:03:19.075Z,98827.38
2024-03-03T13:05:46.641Z,98829.63
2024-03-03T13:08:14.617Z,98824.44
2024-03-03T13:10:42.340Z,98824.14
2024-03-03T13:13:10.064Z,98821.81
2024-03-03T13:15:44.236Z,98815.90
2024-03-03T13:18:17.053Z,98815.08
2024-03-03T13:20:44.929Z,98807.00
2024-03-03T13:23:13.548Z,98803.25
2024-03-03T13:25:41.647Z,98799.95
2024-03-03T13:28:09.649Z,98799.74
2024-03-03T13:30:37.280Z,98796.41
2024-03-03T13:33:04.896Z,98795.70
2024-03-03T13:35:32.507Z,98796.43
2024-03-03T13:38:00.154Z,98798.15
2024-03-03T13:40:27.800Z,98797.51
2024-03-03T13:42:55.625Z,98800.71
2024-03-03T13:45:23.348Z,98795.53
2024-03-03T13:47:51.375Z,98797.43
2024-03-03T13:50:18.977Z,98793.02
2024-03-03T13:52:46.541Z,98792.90
2024-03-03T13:55:14.132Z,98794.23
2024-03-03T13:57:41.855Z,98791.08
2024-03-03T14:00:09.426Z,98794.67
2024-03-03T14:02:37.088Z,98792.44
2024-03-03T14:05:04.642Z,98794.30
2024-03-03T14:07:32.853Z,98793.05
2024-03-03T14:10:00.539Z,98790.70
2024-03-03T14:12:28.339Z,98789.79
2024-03-03T14:14:55.992Z,98789.90
2024-03-03T14:17:23.660Z,98789.11
2024-03-03T14:19:51.219Z,98787.71
2024-03-03T14:22:18.812Z,98788.21
2024-03-03T14:24:46.448Z,98786.27
2024-03-03T14:27:13.997Z,98785.52
2024-03-03T14:29:41.562Z,98784.17
2024-03-03T14:32:09.111Z,98784.25
2024-03-03T14:34:36.785Z,98780.73
2024-03-03T14:37:04.401Z,98784.83
2024-03-03T14:39:32.196Z,98784.70
2024-03-03T14:41:59.762Z,98784.39
2024-03-03T14:44:27.425Z,98780.71
2024-03-03T14:46:54.978Z,98776.40
2024-03-03T14:49:23.002Z,98773.66
2024-03-03T14:51:50.763Z,98774.33
2024-03-03T14:54:18.396Z,98776.32
2024-03-03T14:56:46.047Z,98777.56
2024-03-03T14:59:13.591Z,98775.59
2024-03-03T15:01:41.370Z,98778.94
2024-03-03T15:04:09.027Z,98777.63
2024-03-03T15:06:36.573Z,98778.79
2024-03-03T15:09:04.546Z,98783.23
2024-03-03T15:11:32.273Z,98780.73
2024-03-03T15:14:02.244Z,98779.89
2024-03-03T15:16:30.421Z,98782.53
2024-03-03T15:18:58.087Z,98776.60
2024-03-03T15:21:25.621Z,98773.26
2024-03-03T15:23:53.296Z,98771.64
2024-03-03T15:26:20.844Z,98771.64
2024-03-03T15:28:48.502Z,98772.84
2024-03-03T15:31:16.499Z,98772.52
2024-03-03T15:33:44.134Z,98769.54
2024-03-03T15:36:11.689Z,98770.89
2024-03-03T15:38:39.149Z,98768.45
2024-03-03T15:41:06.704Z,98770.76
2024-03-03T15:43:34.307Z,98768.63
2024-03-03T15:46:02.057Z,98773.05
2024-03-03T15:48:29.685Z,98774.25
2024-03-03T15:50:57.356Z,98776.48
2024-03-03T15:53:24.903Z,98778.48
2024-03-03T15:55:53.585Z,98775.39
2024-03-03T15:58:22.180Z,98776.98
2024-03-03T16:00:49.838Z,98775.34
2024-03-03T16:03:17.494Z,98776.82
2024-03-03T16:05:45.164Z,98777.25
2024-03-03T16:08:12.721Z,98776.63
2024-03-03T16:10:40.364Z,98777.91
2024-03-03T16:13:08.055Z,98777.33
2024-03-03T16:15:35.703Z,98774.91
2024-03-03T16:18:03.724Z,98773.48
2024-03-03T16:20:31.325Z,98771.41
2024-03-03T16:22:59.026Z,98768.69
2024-03-03T16:25:26.591Z,98770.84
2024-03-03T16:27:54.341Z,98768.18
2024-03-03T16:30:21.880Z,98767.52
2024-03-03T16:32:49.558Z,98767.58
2024-03-03T16:35:17.298Z,98765.52
2024-03-03T16:37:45.059Z,98763.94
2024-03-03T16:40:12.895Z,98763.30
2024-03-03T16:42:40.674Z,98764.59
2024-03-03T16:45:08.587Z,98767.45
2024-03-03T16:47:36.442Z,98768.40
2024-03-03T16:50:04.085Z,98768.73
2024-03-03T16:52:31.659Z,98772.73
2024-03-03T16:54:59.331Z,98772.33
2024-03-03T16:57:27.281Z,98774.03
2024-03-03T16:59:54.855Z,98775.42
2024-03-03T17:02:22.392Z,98778.28
2024-03-03T17:04:50.050Z,98777.44
2024-03-03T17:07:17.675Z,98781.53
2024-03-03T17:09:45.494Z,98782.19
2024-03-03T17:12:13.106Z,98784.28
2024-03-03T17:14:40.919Z,98787.20
2024-03-03T17:17:08.475Z,98789.09
2024-03-03T17:19:36.215Z,98792.73
2024-03-03T17:22:03.950Z,98792.83
2024-03-03T17:24:31.751Z,98793.77
2024-03-03T17:26:59.307Z,98793.19
2024-03-03T17:29:26.872Z,98793.28
2024-03-03T17:31:54.437Z,98795.07
2024-03-03T17:34:22.068Z,98795.85
2024-03-03T17:36:49.872Z,98794.21
2024-03-03T17:39:17.721Z,98794.79
2024-03-03T17:41:45.405Z,98793.20
2024-03-03T17:44:12.944Z,98790.61
2024-03-03T17:46:40.604Z,98792.52
2024-03-03T17:49:08.209Z,98792.39
2024-03-03T17:51:35.951Z,98794.34
2024-03-03T17:54:03.586Z,98793.02
2024-03-03T17:56:31.256Z,98791.27
2024-03-03T17:58:58.920Z,98792.88
2024-03-03T18:01:26.598Z,98789.88
2024-03-03T18:03:54.267Z,98787.02
2024-03-03T18:06:21.901Z,98791.42
2024-03-03T18:08:49.472Z,98791.98
2024-03-03T18:11:17.160Z,98794.55
2024-03-03T18:13:44.671Z,98793.50
2024-03-03T18:16:12.393Z,98797.19
2024-03-03T18:18:39.794Z,98803.84
2024-03-03T18:21:07.861Z,98806.98
2024-03-03T18:23:35.440Z,98806.40
2024-03-03T18:26:03.190Z,98802.34
2024-03-03T18:28:30.835Z,98801.52
2024-03-03T18:30:58.581Z,98804.35
2024-03-03T18:33:26.518Z,98800.25
2024-03-03T18:35:54.038Z,98800.78
2024-03-03T18:38:21.694Z,98801.51
2024-03-03T18:40:49.259Z,98801.42
2024-03-03T18:43:17.170Z,98801.80
2024-03-03T18:45:44.793Z,98797.70
2024-03-03T18:48:12.456Z,98801.35
2024-03-03T18:50:41.768Z,98798.75
2024-03-03T18:53:10.743Z,98797.83
2024-03-03T18:55:38.438Z,98797.29
2024-03-03T18:58:05.976Z,98799.26
2024-03-03T19:00:33.634Z,98797.55
2024-03-03T19:03:01.585Z,98798.23
2024-03-03T19:05:29.160Z,98801.00
2024-03-03T19:07:56.718Z,98807.48
2024-03-03T19:10:24.400Z,98805.28
2024-03-03T19:12:51.976Z,98808.11
2024-03-03T19:15:19.689Z,98810.89
2024-03-03T19:17:47.278Z,98802.80
2024-03-03T19:20:14.909Z,98803.69
2024-03-03T19:22:42.572Z,98806.31
2024-03-03T19:25:10.577Z,98806.27
2024-03-03T19:27:38.096Z,98802.86
2024-03-03T19:30:05.657Z,98802.83
2024-03-03T19:32:33.242Z,98800.92
2024-03-03T19:35:00.878Z,98804.38
2024-03-03T19:37:28.566Z,98807.14
2024-03-03T19:39:56.308Z,98804.98
2024-03-03T19:42:23.864Z,98807.61
2024-03-03T19:44:51.830Z,98806.09
2024-03-03T19:47:19.389Z,98807.27
2024-03-03T19:49:47.047Z,98804.83
2024-03-03T19:52:15.369Z,98809.21
2024-03-03T19:54:43.302Z,98806.95
2024-03-03T19:57:10.856Z,98810.04
2024-03-03T19:59:38.414Z,98799.38
2024-03-03T20:02:06.074Z,98802.18
2024-03-03T20:04:34.009Z,98802.03
2024-03-03T20:07:01.851Z,98808.54
2024-03-03T20:09:29.486Z,98807.63
2024-03-03T20:11:57.126Z,98809.30
2024-03-03T20:14:24.686Z,98811.49
2024-03-03T20:16:52.461Z,98810.32
2024-03-03T20:19:20.137Z,98808.11
2024-03-03T20:21:47.775Z,98810.42
2024-03-03T20:24:15.331Z,98807.39
2024-03-03T20:26:43.310Z,98810.33
2024-03-03T20:29:13.246Z,98810.73
2024-03-03T20:31:41.495Z,98813.41
2024-03-03T20:34:09.363Z,98812.13
2024-03-03T20:36:37.028Z,98813.48
2024-03-03T20:39:04.679Z,98813.05
2024-03-03T20:41:32.250Z,98812.20
2024-03-03T20:43:59.908Z,98810.33
2024-03-03T20:46:27.809Z,98809.94
2024-03-03T20:48:55.640Z,98809.33
2024-03-03T20:51:23.291Z,98805.74
2024-03-03T20:53:50.652Z,98808.23
2024-03-03T20:56:18.306Z,98805.83
2024-03-03T20:58:45.666Z,98806.19
2024-03-03T21:01:13.496Z,98805.18
2024-03-03T21:03:41.290Z,98804.73
2024-03-03T21:06:08.845Z,98802.38
2024-03-03T21:08:36.410Z,98801.63
2024-03-03T21:11:04.317Z,98799.06
2024-03-03T21:13:32.196Z,98797.92
2024-03-03T21:15:59.813Z,98800.97
2024-03-03T21:18:27.572Z,98803.19
2024-03-03T21:20:55.139Z,98797.23
2024-03-03T21:23:22.826Z,98800.27
2024-03-03T21:25:50.345Z,98797.73
2024-03-03T21:28:18.072Z,98800.35
2024-03-03T21:30:45.669Z,98797.92
2024-03-03T21:33:13.236Z,98798.80
2024-03-03T21:35:41.196Z,98797.21
2024-03-03T21:38:08.760Z,98797.40
2024-03-03T21:40:36.453Z,98797.45
2024-03-03T21:43:03.989Z,98801.97
2024-03-03T21:45:31.529Z,98801.89
2024-03-03T21:47:59.152Z,98794.61
2024-03-03T21:50:26.955Z,98795.90
2024-03-03T21:52:54.527Z,98793.95
2024-03-03T21:55:22.328Z,98790.09
2024-03-03T21:57:49.942Z,98791.81
2024-03-03T22:00:17.523Z,98790.38
2024-03-03T22:02:45.115Z,98793.60
2024-03-03T22:05:13.025Z,98789.64
2024-03-03T22:07:40.781Z,98791.40
2024-03-03T22:10:08.574Z,98795.63
2024-03-03T22:12:36.330Z,98793.84
2024-03-03T22:15:04.286Z,98791.92
2024-03-03T22:17:31.859Z,98794.88
2024-03-03T22:19:59.510Z,98791.23
2024-03-03T22:22:27.123Z,98793.00
2024-03-03T22:24:54.876Z,98796.13
2024-03-03T22:27:22.498Z,98796.02
2024-03-03T22:29:50.054Z,98798.19
2024-03-03T22:32:17.721Z,98791.86
2024-03-03T22:34:45.490Z,98792.28
2024-03-03T22:37:13.415Z,98792.80
2024-03-03T22:39:40.922Z,98792.36
2024-03-03T22:42:08.566Z,98795.87
2024-03-03T22:44:36.116Z,98791.64
2024-03-03T22:47:03.687Z,98789.90
2024-03-03T22:49:31.516Z,98786.91
2024-03-03T22:51:59.520Z,98790.08
2024-03-03T22:54:27.279Z,98787.26
2024-03-03T22:56:55.300Z,98787.50
2024-03-03T22:59:23.017Z,98777.91
2024-03-03T23:01:50.744Z,98780.98
2024-03-03T23:04:18.367Z,98780.82
2024-03-03T23:06:46.000Z,98785.91
2024-03-03T23:09:13.629Z,98787.38
2024-03-03T23:11:41.364Z,98783.20
2024-03-03T23:14:08.985Z,98779.41
2024-03-03T23:16:36.725Z,98782.17
2024-03-03T23:19:04.530Z,98776.91
2024-03-03T23:21:32.071Z,98774.48
2024-03-03T23:23:59.737Z,98777.70
2024-03-03T23:26:27.393Z,98780.48
2024-03-03T23:28:54.947Z,98778.72
2024-03-03T23:31:22.553Z,98777.55
2024-03-03T23:33:50.273Z,98779.63
2024-03-03T23:36:17.831Z,98781.28
2024-03-03T23:38:45.299Z,98781.31
2024-03-03T23:41:12.839Z,98779.46
2024-03-03T23:43:40.483Z,98779.11
2024-03-03T23:46:08.210Z,98776.94
2024-03-03T23:48:35.927Z,98779.16
2024-03-03T23:51:03.501Z,98783.09
2024-03-03T23:53:31.164Z,98777.75
2024-03-03T23:55:58.714Z,98777.97
2024-03-03T23:58:26.464Z,98776.71
